Columbus, Ohio
Traffic Map
Current Weather Conditions
Columbus, Ohio
Broken Clouds
Broken Clouds

Feels Like: 9°
Wind Chill: Ceiling: 3100
Heat Index: Visibility: 8mi
Dew Point: Wind: 0mph
Humidity: 97% Direction: ° ()
Pressure: 29.98in Gusts: 0mph
Raw Report DataKCMH 010751Z 00000KT 8SM BKN031 09/09 A2998 RMK AO2 SLP153 T00940089
Traffic Incident Summary
Active as of:
Severity:
Category:
InformationThere was an issue retrieving the traffic information for this location. Please try a different location or try again shortly.
Advertisements
Track Severe Weather on mobile